createdAt,value
2017-06-22T00:00:16.316Z,6.82
2017-06-22T00:02:45.197Z,7.07
2017-06-22T00:05:14.298Z,6.45
2017-06-22T00:07:43.180Z,6.85
2017-06-22T00:10:12.049Z,8.80
2017-06-22T00:12:40.967Z,8.50
2017-06-22T00:15:09.862Z,7.78
2017-06-22T00:17:38.738Z,7.28
2017-06-22T00:20:07.609Z,7.57
2017-06-22T00:22:36.473Z,7.78
2017-06-22T00:25:05.371Z,7.35
2017-06-22T00:27:34.326Z,8.45
2017-06-22T00:30:03.566Z,7.37
2017-06-22T00:32:32.406Z,7.20
2017-06-22T00:35:01.542Z,7.43
2017-06-22T00:37:30.418Z,7.60
2017-06-22T00:39:59.291Z,8.52
2017-06-22T00:42:28.559Z,9.48
2017-06-22T00:44:57.472Z,7.65
2017-06-22T00:47:26.631Z,10.15
2017-06-22T00:49:55.858Z,7.00
2017-06-22T00:52:25.006Z,9.10
2017-06-22T00:54:53.854Z,7.78
2017-06-22T00:57:23.025Z,8.40
2017-06-22T00:59:52.037Z,9.65
2017-06-22T01:02:20.920Z,8.77
2017-06-22T01:04:49.555Z,8.80
2017-06-22T01:07:18.763Z,8.60
2017-06-22T01:09:48.063Z,10.07
2017-06-22T01:12:17.154Z,7.80
2017-06-22T01:14:46.481Z,10.30
2017-06-22T01:17:15.362Z,7.68
2017-06-22T01:19:44.438Z,8.07
2017-06-22T01:22:13.526Z,7.62
2017-06-22T01:24:42.430Z,7.80
2017-06-22T01:27:11.375Z,9.10
2017-06-22T01:29:40.446Z,8.95
2017-06-22T01:32:09.615Z,7.60
2017-06-22T01:34:38.726Z,7.57
2017-06-22T01:37:07.594Z,10.25
2017-06-22T01:39:36.749Z,11.15
2017-06-22T01:42:05.590Z,7.62
2017-06-22T01:44:34.471Z,8.00
2017-06-22T01:47:03.326Z,10.43
2017-06-22T01:49:32.198Z,7.32
2017-06-22T01:52:01.079Z,7.47
2017-06-22T01:54:30.202Z,8.23
2017-06-22T01:56:59.535Z,7.00
2017-06-22T01:59:28.682Z,11.00
2017-06-22T02:01:57.614Z,7.97
2017-06-22T02:04:26.626Z,8.43
2017-06-22T02:06:55.511Z,10.63
2017-06-22T02:09:24.657Z,9.10
2017-06-22T02:11:53.556Z,8.65
2017-06-22T02:14:22.394Z,10.15
2017-06-22T02:16:51.259Z,8.13
2017-06-22T02:19:20.114Z,8.68
2017-06-22T02:21:48.975Z,8.95
2017-06-22T02:24:17.843Z,8.63
2017-06-22T02:26:46.740Z,8.57
2017-06-22T02:29:15.734Z,8.50
2017-06-22T02:31:44.571Z,12.23
2017-06-22T02:34:13.750Z,8.50
2017-06-22T02:36:42.602Z,8.18
2017-06-22T02:39:11.443Z,9.63
2017-06-22T02:41:40.653Z,9.75
2017-06-22T02:44:09.554Z,7.12
2017-06-22T02:46:38.446Z,9.90
2017-06-22T02:49:07.513Z,9.20
2017-06-22T02:51:36.446Z,7.93
2017-06-22T02:54:05.635Z,9.20
2017-06-22T02:56:34.627Z,9.38
2017-06-22T02:59:03.549Z,7.82
2017-06-22T03:01:32.419Z,10.23
2017-06-22T03:04:01.304Z,8.02
2017-06-22T03:06:30.155Z,8.60
2017-06-22T03:08:59.051Z,8.00
2017-06-22T03:11:27.936Z,8.93
2017-06-22T03:13:56.787Z,11.48
2017-06-22T03:16:25.694Z,9.55
2017-06-22T03:18:54.586Z,11.35
2017-06-22T03:21:23.445Z,9.90
2017-06-22T03:23:52.353Z,8.20
2017-06-22T03:26:21.534Z,8.10
2017-06-22T03:28:50.520Z,7.20
2017-06-22T03:31:19.370Z,9.63
2017-06-22T03:33:48.198Z,8.23
2017-06-22T03:36:17.139Z,8.85
2017-06-22T03:38:46.194Z,8.60
2017-06-22T03:41:15.193Z,7.95
2017-06-22T03:43:49.719Z,9.18
2017-06-22T03:46:24.551Z,12.10
2017-06-22T03:48:53.491Z,7.62
2017-06-22T03:51:22.386Z,8.00
2017-06-22T03:53:51.299Z,7.50
2017-06-22T03:56:20.143Z,8.85
2017-06-22T03:58:49.122Z,8.95
2017-06-22T04:01:18.259Z,6.93
2017-06-22T04:03:47.134Z,8.45
2017-06-22T04:06:15.970Z,7.93
2017-06-22T04:08:44.899Z,8.50
2017-06-22T04:11:13.824Z,8.23
2017-06-22T04:13:42.835Z,8.38
2017-06-22T04:16:12.526Z,8.20
2017-06-22T04:18:41.556Z,9.00
2017-06-22T04:21:10.422Z,7.60
2017-06-22T04:23:39.590Z,8.75
2017-06-22T04:26:08.662Z,8.20
2017-06-22T04:28:37.519Z,7.00
2017-06-22T04:31:06.543Z,8.05
2017-06-22T04:33:35.652Z,9.65
2017-06-22T04:36:04.717Z,9.35
2017-06-22T04:38:33.841Z,9.60
2017-06-22T04:41:02.730Z,10.07
2017-06-22T04:43:31.641Z,7.15
2017-06-22T04:46:00.523Z,8.32
2017-06-22T04:48:29.459Z,7.60
2017-06-22T04:50:58.712Z,6.90
2017-06-22T04:53:27.692Z,11.18
2017-06-22T04:55:56.555Z,7.10
2017-06-22T04:58:25.451Z,7.37
2017-06-22T05:00:54.294Z,10.07
2017-06-22T05:03:26.443Z,7.72
2017-06-22T05:05:55.851Z,7.12
2017-06-22T05:08:25.838Z,9.35
2017-06-22T05:10:55.561Z,6.72
2017-06-22T05:13:24.815Z,7.12
2017-06-22T05:15:54.145Z,8.55
2017-06-22T05:18:23.018Z,6.37
2017-06-22T05:20:50.551Z,6.90
2017-06-22T05:23:18.034Z,6.43
2017-06-22T05:25:45.738Z,6.90
2017-06-22T05:28:13.943Z,5.97
2017-06-22T05:30:41.478Z,5.62
2017-06-22T05:33:09.043Z,6.43
2017-06-22T05:35:36.756Z,5.50
2017-06-22T05:38:04.272Z,5.43
2017-06-22T05:40:31.809Z,5.50
2017-06-22T05:42:59.721Z,5.20
2017-06-22T05:45:27.219Z,6.40
2017-06-22T05:47:55.740Z,5.40
2017-06-22T05:50:23.500Z,14.67
2017-06-22T05:52:51.438Z,6.63
2017-06-22T05:55:18.951Z,5.23
2017-06-22T05:57:46.821Z,6.40
2017-06-22T06:00:14.332Z,5.40
2017-06-22T06:02:42.216Z,5.10
2017-06-22T06:05:10.072Z,5.53
2017-06-22T06:07:37.819Z,4.50
2017-06-22T06:10:05.433Z,4.87
2017-06-22T06:12:33.368Z,5.80
2017-06-22T06:15:00.860Z,4.90
2017-06-22T06:17:28.428Z,4.50
2017-06-22T06:19:56.963Z,5.33
2017-06-22T06:22:24.728Z,4.60
2017-06-22T06:24:52.276Z,6.13
2017-06-22T06:27:19.846Z,6.57
2017-06-22T06:29:47.599Z,4.80
2017-06-22T06:32:15.128Z,4.63
2017-06-22T06:34:42.925Z,5.20
2017-06-22T06:37:10.488Z,5.17
2017-06-22T06:39:38.547Z,4.83
2017-06-22T06:42:06.030Z,7.57
2017-06-22T06:44:33.538Z,4.53
2017-06-22T06:47:01.319Z,4.40
2017-06-22T06:49:28.854Z,4.53
2017-06-22T06:51:56.374Z,4.27
2017-06-22T06:54:24.426Z,4.70
2017-06-22T06:56:52.023Z,4.10
2017-06-22T06:59:19.521Z,5.00
2017-06-22T07:01:47.032Z,5.00
2017-06-22T07:04:15.337Z,4.40
2017-06-22T07:06:42.887Z,3.70
2017-06-22T07:09:10.371Z,4.00
2017-06-22T07:11:37.880Z,4.40
2017-06-22T07:14:05.420Z,4.20
2017-06-22T07:16:33.950Z,3.57
2017-06-22T07:19:01.476Z,4.20
2017-06-22T07:21:29.448Z,6.27
2017-06-22T07:23:57.224Z,4.23
2017-06-22T07:26:24.842Z,5.33
2017-06-22T07:28:53.087Z,4.57
2017-06-22T07:31:21.395Z,4.23
2017-06-22T07:33:49.644Z,3.97
2017-06-22T07:36:17.671Z,3.63
2017-06-22T07:38:45.582Z,4.30
2017-06-22T07:41:13.101Z,6.80
2017-06-22T07:43:40.619Z,4.30
2017-06-22T07:46:09.553Z,4.47
2017-06-22T07:48:37.055Z,4.47
2017-06-22T07:51:04.571Z,6.13
2017-06-22T07:53:32.148Z,4.20
2017-06-22T07:55:59.880Z,4.63
2017-06-22T07:58:27.651Z,4.50
2017-06-22T08:00:55.216Z,4.47
2017-06-22T08:03:22.935Z,4.93
2017-06-22T08:05:50.731Z,4.80
2017-06-22T08:08:18.220Z,5.10
2017-06-22T08:10:46.063Z,5.63
2017-06-22T08:13:16.226Z,4.80
2017-06-22T08:15:45.392Z,4.90
2017-06-22T08:18:13.118Z,4.50
2017-06-22T08:20:40.679Z,4.60
2017-06-22T08:23:09.296Z,5.07
2017-06-22T08:25:36.853Z,5.73
2017-06-22T08:28:04.399Z,5.10
2017-06-22T08:30:31.908Z,5.00
2017-06-22T08:32:59.799Z,4.47
2017-06-22T08:35:27.288Z,4.90
2017-06-22T08:37:54.968Z,5.20
2017-06-22T08:40:23.250Z,5.57
2017-06-22T08:42:51.625Z,6.07
2017-06-22T08:45:19.103Z,4.83
2017-06-22T08:47:46.639Z,5.07
2017-06-22T08:50:14.906Z,4.97
2017-06-22T08:52:43.167Z,4.37
2017-06-22T08:55:10.672Z,5.00
2017-06-22T08:57:38.222Z,4.67
2017-06-22T09:00:05.868Z,5.60
2017-06-22T09:02:36.256Z,6.87
2017-06-22T09:05:03.778Z,6.03
2017-06-22T09:07:31.424Z,6.77
2017-06-22T09:09:59.241Z,6.50
2017-06-22T09:12:26.758Z,5.90
2017-06-22T09:14:54.450Z,5.23
2017-06-22T09:17:22.013Z,8.03
2017-06-22T09:19:49.948Z,6.90
2017-06-22T09:22:18.200Z,5.30
2017-06-22T09:24:46.150Z,5.20
2017-06-22T09:27:14.051Z,6.60
2017-06-22T09:29:41.809Z,5.47
2017-06-22T09:32:09.649Z,5.07
2017-06-22T09:34:37.650Z,5.57
2017-06-22T09:37:05.257Z,6.50
2017-06-22T09:39:33.535Z,5.50
2017-06-22T09:42:02.353Z,7.40
2017-06-22T09:44:30.347Z,6.00
2017-06-22T09:46:57.900Z,6.17
2017-06-22T09:49:25.910Z,5.93
2017-06-22T09:51:54.017Z,16.20
2017-06-22T09:54:21.620Z,5.83
2017-06-22T09:56:49.208Z,6.50
2017-06-22T09:59:16.824Z,6.27
2017-06-22T10:01:44.444Z,5.43
2017-06-22T10:04:12.035Z,7.00
2017-06-22T10:06:39.608Z,6.50
2017-06-22T10:09:07.160Z,6.43
2017-06-22T10:11:34.660Z,6.90
2017-06-22T10:14:02.508Z,5.57
2017-06-22T10:16:31.222Z,8.67
2017-06-22T10:18:58.832Z,5.50
2017-06-22T10:21:27.455Z,5.60
2017-06-22T10:23:54.974Z,5.50
2017-06-22T10:26:22.696Z,5.80
2017-06-22T10:28:50.218Z,5.60
2017-06-22T10:31:17.738Z,6.40
2017-06-22T10:33:45.230Z,6.30
2017-06-22T10:36:12.767Z,6.43
2017-06-22T10:38:41.288Z,7.03
2017-06-22T10:41:10.366Z,8.50
2017-06-22T10:43:39.251Z,7.07
2017-06-22T10:46:07.358Z,6.03
2017-06-22T10:48:35.343Z,6.57
2017-06-22T10:51:03.827Z,7.87
2017-06-22T10:53:31.419Z,6.20
2017-06-22T10:55:59.708Z,7.27
2017-06-22T10:58:27.343Z,8.57
2017-06-22T11:00:56.138Z,11.10
2017-06-22T11:03:23.942Z,7.53
2017-06-22T11:05:51.491Z,6.90
2017-06-22T11:08:19.275Z,8.63
2017-06-22T11:10:46.869Z,7.57
2017-06-22T11:13:14.432Z,8.13
2017-06-22T11:15:42.736Z,7.10
2017-06-22T11:18:10.268Z,12.27
2017-06-22T11:20:38.881Z,7.97
2017-06-22T11:23:07.304Z,8.43
2017-06-22T11:25:34.989Z,7.23
2017-06-22T11:28:02.551Z,7.10
2017-06-22T11:30:30.323Z,8.00
2017-06-22T11:32:58.863Z,7.07
2017-06-22T11:35:26.403Z,7.47
2017-06-22T11:37:53.921Z,8.50
2017-06-22T11:40:21.423Z,7.43
2017-06-22T11:42:49.020Z,9.57
2017-06-22T11:45:16.603Z,9.17
2017-06-22T11:47:44.386Z,8.00
2017-06-22T11:50:12.036Z,6.70
2017-06-22T11:52:40.025Z,8.97
2017-06-22T11:55:07.535Z,6.87
2017-06-22T11:57:35.074Z,5.50
2017-06-22T12:00:03.734Z,8.03
2017-06-22T12:02:31.779Z,7.07
2017-06-22T12:04:59.284Z,6.80
2017-06-22T12:07:26.775Z,8.07
2017-06-22T12:09:54.344Z,7.30
2017-06-22T12:12:21.876Z,7.17
2017-06-22T12:14:49.483Z,7.67
2017-06-22T12:17:17.124Z,8.60
2017-06-22T12:19:44.607Z,7.90
2017-06-22T12:22:12.283Z,8.70
2017-06-22T12:24:41.057Z,8.57
2017-06-22T12:27:08.840Z,8.50
2017-06-22T12:29:37.300Z,8.20
2017-06-22T12:32:05.055Z,8.27
2017-06-22T12:34:32.535Z,7.60
2017-06-22T12:37:00.272Z,8.17
2017-06-22T12:39:27.927Z,7.63
2017-06-22T12:44:30.026Z,8.33
2017-06-22T12:46:57.794Z,8.53
2017-06-22T12:49:25.343Z,7.87
2017-06-22T12:51:53.615Z,7.70
2017-06-22T12:54:21.389Z,7.00
2017-06-22T12:56:49.105Z,8.80
2017-06-22T12:59:17.071Z,8.93
2017-06-22T13:01:44.657Z,7.47
2017-06-22T13:04:12.379Z,6.93
2017-06-22T13:06:40.491Z,6.90
2017-06-22T13:09:08.055Z,7.53
2017-06-22T13:11:36.452Z,7.70
2017-06-22T13:14:04.422Z,8.00
2017-06-22T13:16:32.147Z,8.17
2017-06-22T13:18:59.631Z,6.97
2017-06-22T13:21:27.323Z,8.90
2017-06-22T13:23:55.246Z,8.20
2017-06-22T13:26:22.806Z,10.73
2017-06-22T13:28:50.332Z,8.67
2017-06-22T13:31:18.052Z,7.57
2017-06-22T13:33:45.859Z,7.23
2017-06-22T13:36:13.368Z,8.00
2017-06-22T13:38:40.945Z,8.00
2017-06-22T13:41:08.572Z,7.73
2017-06-22T13:43:36.060Z,7.23
2017-06-22T13:46:03.696Z,7.97
2017-06-22T13:48:31.895Z,8.10
2017-06-22T13:50:59.452Z,11.00
2017-06-22T13:53:27.152Z,5.97
2017-06-22T13:55:54.683Z,6.10
2017-06-22T13:58:22.259Z,8.73
2017-06-22T14:00:49.836Z,7.07
2017-06-22T14:03:17.322Z,6.80
2017-06-22T14:05:45.698Z,6.20
2017-06-22T14:08:13.621Z,9.03
2017-06-22T14:10:46.363Z,7.30
2017-06-22T14:13:14.784Z,7.27
2017-06-22T14:15:44.074Z,7.33
2017-06-22T14:18:11.771Z,7.50
2017-06-22T14:20:39.572Z,7.40
2017-06-22T14:23:07.154Z,7.20
2017-06-22T14:25:34.842Z,8.57
2017-06-22T14:28:02.644Z,8.30
2017-06-22T14:30:31.420Z,8.70
2017-06-22T14:32:59.243Z,8.20
2017-06-22T14:35:27.771Z,7.23
2017-06-22T14:37:55.858Z,8.60
2017-06-22T14:40:23.372Z,8.30
2017-06-22T14:42:51.503Z,8.27
2017-06-22T14:45:19.140Z,6.83
2017-06-22T14:47:46.725Z,7.40
2017-06-22T14:50:14.372Z,7.33
2017-06-22T14:52:42.374Z,6.63
2017-06-22T14:55:09.930Z,7.23
2017-06-22T14:57:38.343Z,7.47
2017-06-22T15:00:06.091Z,7.30
2017-06-22T15:02:33.776Z,7.60
2017-06-22T15:05:01.287Z,8.00
2017-06-22T15:07:29.032Z,8.37
2017-06-22T15:09:56.540Z,8.23
2017-06-22T15:12:24.371Z,8.53
2017-06-22T15:14:52.160Z,8.63
2017-06-22T15:17:20.543Z,9.23
2017-06-22T15:19:48.368Z,8.00
2017-06-22T15:22:16.624Z,7.90
2017-06-22T15:24:44.547Z,10.00
2017-06-22T15:27:12.044Z,8.80
2017-06-22T15:29:39.715Z,8.80
2017-06-22T15:32:07.284Z,9.40
2017-06-22T15:34:35.768Z,8.83
2017-06-22T15:37:03.351Z,9.27
2017-06-22T15:39:31.900Z,11.80
2017-06-22T15:41:59.432Z,9.13
2017-06-22T15:44:27.104Z,9.83
2017-06-22T15:46:55.416Z,8.40
2017-06-22T15:49:23.229Z,9.47
2017-06-22T15:51:50.716Z,8.77
2017-06-22T15:54:18.658Z,8.87
2017-06-22T15:56:47.200Z,8.23
2017-06-22T15:59:15.371Z,9.33
2017-06-22T16:01:42.872Z,8.73
2017-06-22T16:04:10.424Z,9.63
2017-06-22T16:06:42.672Z,13.73
2017-06-22T16:09:10.192Z,20.53
2017-06-22T16:11:37.798Z,19.87
2017-06-22T16:14:05.525Z,21.43
2017-06-22T16:16:33.994Z,16.13
2017-06-22T16:19:02.080Z,13.40
2017-06-22T16:21:29.835Z,10.15
2017-06-22T16:23:57.326Z,14.70
2017-06-22T16:26:25.117Z,16.67
2017-06-22T16:28:53.371Z,13.80
2017-06-22T16:31:21.132Z,12.35
2017-06-22T16:33:48.771Z,10.57
2017-06-22T16:36:16.303Z,10.15
2017-06-22T16:38:44.992Z,8.48
2017-06-22T16:41:12.587Z,13.25
2017-06-22T16:43:40.417Z,9.57
2017-06-22T16:46:09.075Z,11.55
2017-06-22T16:48:36.967Z,8.07
2017-06-22T16:51:04.721Z,8.10
2017-06-22T16:53:32.396Z,12.50
2017-06-22T16:56:02.493Z,8.40
2017-06-22T16:58:31.428Z,10.75
2017-06-22T17:00:59.257Z,10.18
2017-06-22T17:03:26.882Z,9.45
2017-06-22T17:05:55.914Z,12.25
2017-06-22T17:08:24.243Z,9.55
2017-06-22T17:10:52.416Z,7.80
2017-06-22T17:13:20.707Z,9.80
2017-06-22T17:15:48.335Z,11.48
2017-06-22T17:18:16.151Z,8.63
2017-06-22T17:20:43.882Z,9.18
2017-06-22T17:23:12.332Z,9.30
2017-06-22T17:25:40.892Z,8.77
2017-06-22T17:28:08.582Z,7.55
2017-06-22T17:30:36.307Z,9.10
2017-06-22T17:33:04.239Z,7.97
2017-06-22T17:35:31.772Z,8.30
2017-06-22T17:37:59.297Z,8.15
2017-06-22T17:40:26.958Z,7.03
2017-06-22T17:42:54.495Z,10.07
2017-06-22T17:45:22.048Z,10.55
2017-06-22T17:47:50.966Z,10.55
2017-06-22T17:50:18.755Z,11.23
2017-06-22T17:52:47.650Z,11.30
2017-06-22T17:55:16.599Z,11.63
2017-06-22T17:57:45.512Z,11.63
2017-06-22T18:00:14.400Z,15.20
2017-06-22T18:02:43.939Z,11.68
2017-06-22T18:05:12.786Z,9.25
2017-06-22T18:07:42.009Z,9.70
2017-06-22T18:10:10.895Z,8.07
2017-06-22T18:12:39.774Z,8.10
2017-06-22T18:15:08.630Z,10.05
2017-06-22T18:17:37.806Z,8.80
2017-06-22T18:20:08.380Z,10.10
2017-06-22T18:22:37.659Z,11.65
2017-06-22T18:25:06.569Z,13.18
2017-06-22T18:27:35.421Z,11.15
2017-06-22T18:30:04.375Z,11.73
2017-06-22T18:32:33.566Z,13.40
2017-06-22T18:35:02.802Z,15.00
2017-06-22T18:37:30.324Z,14.45
2017-06-22T18:39:57.838Z,16.55
2017-06-22T18:42:26.748Z,14.10
2017-06-22T18:44:54.351Z,14.07
2017-06-22T18:47:21.885Z,13.98
2017-06-22T18:49:49.419Z,15.73
2017-06-22T18:52:17.821Z,14.63
2017-06-22T18:54:46.407Z,12.43
2017-06-22T18:57:13.903Z,11.15
2017-06-22T18:59:42.407Z,12.73
2017-06-22T19:02:10.907Z,9.90
2017-06-22T19:04:38.436Z,12.88
2017-06-22T19:07:05.939Z,10.57
2017-06-22T19:09:33.591Z,10.30
2017-06-22T19:12:02.819Z,9.85
2017-06-22T19:14:31.691Z,10.20
2017-06-22T19:16:59.218Z,10.35
2017-06-22T19:19:27.991Z,10.52
2017-06-22T19:21:56.079Z,9.02
2017-06-22T19:24:24.260Z,9.93
2017-06-22T19:26:51.876Z,8.68
2017-06-22T19:29:20.253Z,8.80
2017-06-22T19:31:49.237Z,8.38
2017-06-22T19:34:16.735Z,9.30
2017-06-22T19:36:44.315Z,9.30
2017-06-22T19:39:11.803Z,8.32
2017-06-22T19:41:39.332Z,9.65
2017-06-22T19:44:06.892Z,8.88
2017-06-22T19:46:34.424Z,8.60
2017-06-22T19:49:01.916Z,9.50
2017-06-22T19:51:29.476Z,9.98
2017-06-22T19:53:57.029Z,10.63
2017-06-22T19:56:24.950Z,10.77
2017-06-22T19:58:53.766Z,10.43
2017-06-22T20:01:21.514Z,10.50
2017-06-22T20:03:49.056Z,7.87
2017-06-22T20:06:16.580Z,8.15
2017-06-22T20:08:44.360Z,9.63
2017-06-22T20:11:12.128Z,8.05
2017-06-22T20:13:40.795Z,9.52
2017-06-22T20:16:09.053Z,8.23
2017-06-22T20:18:36.567Z,8.20
2017-06-22T20:21:04.343Z,8.05
2017-06-22T20:23:32.209Z,8.80
2017-06-22T20:26:00.593Z,7.15
2017-06-22T20:28:28.213Z,7.20
2017-06-22T20:30:55.700Z,7.35
2017-06-22T20:33:23.271Z,7.80
2017-06-22T20:35:50.819Z,6.75
2017-06-22T20:38:18.332Z,7.65
2017-06-22T20:40:45.871Z,6.37
2017-06-22T20:43:14.123Z,6.75
2017-06-22T20:45:41.628Z,7.32
2017-06-22T20:48:09.151Z,6.50
2017-06-22T20:50:36.977Z,6.45
2017-06-22T20:53:04.524Z,8.18
2017-06-22T20:55:32.096Z,6.72
2017-06-22T20:57:59.587Z,5.85
2017-06-22T21:00:27.156Z,7.93
2017-06-22T21:02:55.422Z,10.27
2017-06-22T21:05:23.678Z,6.60
2017-06-22T21:07:51.514Z,9.18
2017-06-22T21:10:19.065Z,7.75
2017-06-22T21:12:46.679Z,8.77
2017-06-22T21:15:14.940Z,7.75
2017-06-22T21:17:42.710Z,6.90
2017-06-22T21:20:11.047Z,6.95
2017-06-22T21:22:39.356Z,6.95
2017-06-22T21:25:06.867Z,6.25
2017-06-22T21:27:34.410Z,9.80
2017-06-22T21:30:02.198Z,8.00
2017-06-22T21:32:29.956Z,6.68
2017-06-22T21:34:57.505Z,4.55
2017-06-22T21:37:25.411Z,6.10
2017-06-22T21:39:53.211Z,5.50
2017-06-22T21:42:20.699Z,7.80
2017-06-22T21:44:48.564Z,16.12
2017-06-22T21:50:08.285Z,6.20
2017-06-22T21:52:36.116Z,3.37
2017-06-22T21:55:03.618Z,8.57
2017-06-22T21:57:32.154Z,3.30
2017-06-22T21:59:59.917Z,5.87
2017-06-22T22:02:27.449Z,5.30
2017-06-22T22:04:55.094Z,5.05
2017-06-22T22:07:23.559Z,6.05
2017-06-22T22:09:52.408Z,7.32
2017-06-22T22:12:20.977Z,4.68
2017-06-22T22:14:48.849Z,6.30
2017-06-22T22:17:18.157Z,4.80
2017-06-22T22:19:47.105Z,8.55
2017-06-22T22:22:15.961Z,4.68
2017-06-22T22:24:45.258Z,5.68
2017-06-22T22:27:14.260Z,4.10
2017-06-22T22:29:43.136Z,4.47
2017-06-22T22:32:12.304Z,7.68
2017-06-22T22:34:41.209Z,8.60
2017-06-22T22:37:10.063Z,7.87
2017-06-22T22:39:39.059Z,6.90
2017-06-22T22:42:08.050Z,12.18
2017-06-22T22:44:36.984Z,9.68
2017-06-22T22:47:05.844Z,8.57
2017-06-22T22:49:35.036Z,7.55
2017-06-22T22:52:03.931Z,6.45
2017-06-22T22:54:32.840Z,7.47
2017-06-22T22:57:01.720Z,7.40
2017-06-22T22:59:30.572Z,9.27
2017-06-22T23:01:59.959Z,7.40
2017-06-22T23:04:27.741Z,7.82
2017-06-22T23:06:55.457Z,9.10
2017-06-22T23:09:23.141Z,7.97
2017-06-22T23:11:50.837Z,7.87
2017-06-22T23:14:18.473Z,7.65
2017-06-22T23:16:45.968Z,10.40
2017-06-22T23:19:13.498Z,8.05
2017-06-22T23:21:41.042Z,7.35
2017-06-22T23:24:08.593Z,8.63
2017-06-22T23:26:36.286Z,7.87
2017-06-22T23:29:03.809Z,7.72
2017-06-22T23:31:31.304Z,8.98
2017-06-22T23:33:58.821Z,8.77
2017-06-22T23:36:26.701Z,8.50
2017-06-22T23:38:54.225Z,8.65
2017-06-22T23:41:21.938Z,7.45
2017-06-22T23:43:49.506Z,9.48
2017-06-22T23:46:19.016Z,9.07
2017-06-22T23:48:47.972Z,8.55
2017-06-22T23:51:16.650Z,8.00
2017-06-22T23:53:44.236Z,9.88
2017-06-22T23:56:11.766Z,11.20
2017-06-22T23:58:39.360Z,8.45
